sensor_id;sensor_type;location;lat;lon;timestamp;temperature;humidity
78694;SHT31;68029;51.978;5.646;2023-05-20T00:01:46;15.5;51.6
78694;SHT31;68029;51.978;5.646;2023-05-20T00:04:16;15.5;51.9
78694;SHT31;68029;51.978;5.646;2023-05-20T00:06:47;15.5;52.0
78694;SHT31;68029;51.978;5.646;2023-05-20T00:09:19;15.4;52.1
78694;SHT31;68029;51.978;5.646;2023-05-20T00:11:49;15.4;51.9
78694;SHT31;68029;51.978;5.646;2023-05-20T00:14:18;15.4;51.9
78694;SHT31;68029;51.978;5.646;2023-05-20T00:16:48;15.3;52.4
78694;SHT31;68029;51.978;5.646;2023-05-20T00:19:18;15.3;52.5
78694;SHT31;68029;51.978;5.646;2023-05-20T00:21:47;15.3;52.9
78694;SHT31;68029;51.978;5.646;2023-05-20T00:24:17;15.2;52.3
78694;SHT31;68029;51.978;5.646;2023-05-20T00:26:47;15.2;52.3
78694;SHT31;68029;51.978;5.646;2023-05-20T00:29:16;15.2;52.5
78694;SHT31;68029;51.978;5.646;2023-05-20T00:31:46;15.1;52.7
78694;SHT31;68029;51.978;5.646;2023-05-20T00:34:15;15.1;52.9
78694;SHT31;68029;51.978;5.646;2023-05-20T00:36:45;15.1;52.8
78694;SHT31;68029;51.978;5.646;2023-05-20T00:39:14;15.0;53.2
78694;SHT31;68029;51.978;5.646;2023-05-20T00:41:44;15.0;53.2
78694;SHT31;68029;51.978;5.646;2023-05-20T00:44:13;15.0;53.3
78694;SHT31;68029;51.978;5.646;2023-05-20T00:46:46;15.0;53.6
78694;SHT31;68029;51.978;5.646;2023-05-20T00:49:17;14.9;53.6
78694;SHT31;68029;51.978;5.646;2023-05-20T00:51:48;14.9;53.7
78694;SHT31;68029;51.978;5.646;2023-05-20T00:54:18;14.9;53.9
78694;SHT31;68029;51.978;5.646;2023-05-20T00:56:48;14.9;54.1
78694;SHT31;68029;51.978;5.646;2023-05-20T00:59:18;14.9;53.7
78694;SHT31;68029;51.978;5.646;2023-05-20T01:01:48;14.9;54.2
78694;SHT31;68029;51.978;5.646;2023-05-20T01:04:18;14.9;54.1
78694;SHT31;68029;51.978;5.646;2023-05-20T01:06:48;14.9;54.0
78694;SHT31;68029;51.978;5.646;2023-05-20T01:09:18;14.9;54.3
78694;SHT31;68029;51.978;5.646;2023-05-20T01:11:57;14.8;54.3
78694;SHT31;68029;51.978;5.646;2023-05-20T01:14:36;14.8;54.2
78694;SHT31;68029;51.978;5.646;2023-05-20T01:17:09;14.8;54.4
78694;SHT31;68029;51.978;5.646;2023-05-20T01:19:44;14.8;54.7
78694;SHT31;68029;51.978;5.646;2023-05-20T01:22:15;14.8;55.1
78694;SHT31;68029;51.978;5.646;2023-05-20T01:24:45;14.8;55.0
78694;SHT31;68029;51.978;5.646;2023-05-20T01:27:21;14.8;54.8
78694;SHT31;68029;51.978;5.646;2023-05-20T01:29:51;14.8;54.7
78694;SHT31;68029;51.978;5.646;2023-05-20T01:32:25;14.7;54.8
78694;SHT31;68029;51.978;5.646;2023-05-20T01:34:58;14.7;55.0
78694;SHT31;68029;51.978;5.646;2023-05-20T01:37:29;14.7;55.4
78694;SHT31;68029;51.978;5.646;2023-05-20T01:40:00;14.7;55.3
78694;SHT31;68029;51.978;5.646;2023-05-20T01:42:32;14.6;55.3
78694;SHT31;68029;51.978;5.646;2023-05-20T01:45:03;14.6;55.4
78694;SHT31;68029;51.978;5.646;2023-05-20T01:47:33;14.6;55.6
78694;SHT31;68029;51.978;5.646;2023-05-20T01:50:04;14.6;55.9
78694;SHT31;68029;51.978;5.646;2023-05-20T01:52:34;14.5;56.0
78694;SHT31;68029;51.978;5.646;2023-05-20T01:55:03;14.5;56.1
78694;SHT31;68029;51.978;5.646;2023-05-20T01:57:33;14.5;56.3
78694;SHT31;68029;51.978;5.646;2023-05-20T02:00:04;14.5;56.3
78694;SHT31;68029;51.978;5.646;2023-05-20T02:02:35;14.5;56.5
78694;SHT31;68029;51.978;5.646;2023-05-20T02:05:05;14.4;56.4
78694;SHT31;68029;51.978;5.646;2023-05-20T02:07:35;14.4;56.5
78694;SHT31;68029;51.978;5.646;2023-05-20T02:10:06;14.4;56.7
78694;SHT31;68029;51.978;5.646;2023-05-20T02:12:36;14.4;56.8
78694;SHT31;68029;51.978;5.646;2023-05-20T02:15:09;14.4;56.8
78694;SHT31;68029;51.978;5.646;2023-05-20T02:17:41;14.4;56.9
78694;SHT31;68029;51.978;5.646;2023-05-20T02:20:12;14.4;56.7
78694;SHT31;68029;51.978;5.646;2023-05-20T02:22:42;14.4;57.0
78694;SHT31;68029;51.978;5.646;2023-05-20T02:25:12;14.4;57.1
78694;SHT31;68029;51.978;5.646;2023-05-20T02:27:42;14.4;57.0
78694;SHT31;68029;51.978;5.646;2023-05-20T02:30:13;14.4;57.2
78694;SHT31;68029;51.978;5.646;2023-05-20T02:32:43;14.4;57.4
78694;SHT31;68029;51.978;5.646;2023-05-20T02:35:13;14.4;57.0
78694;SHT31;68029;51.978;5.646;2023-05-20T02:37:44;14.4;57.2
78694;SHT31;68029;51.978;5.646;2023-05-20T02:40:17;14.4;57.5
78694;SHT31;68029;51.978;5.646;2023-05-20T02:42:47;14.4;57.4
78694;SHT31;68029;51.978;5.646;2023-05-20T02:45:17;14.3;57.3
78694;SHT31;68029;51.978;5.646;2023-05-20T02:47:46;14.3;57.4
78694;SHT31;68029;51.978;5.646;2023-05-20T02:50:15;14.3;57.7
78694;SHT31;68029;51.978;5.646;2023-05-20T02:52:45;14.3;57.8
78694;SHT31;68029;51.978;5.646;2023-05-20T02:55:15;14.3;58.0
78694;SHT31;68029;51.978;5.646;2023-05-20T02:57:45;14.3;58.0
78694;SHT31;68029;51.978;5.646;2023-05-20T03:00:14;14.3;58.1
78694;SHT31;68029;51.978;5.646;2023-05-20T03:02:45;14.3;57.9
78694;SHT31;68029;51.978;5.646;2023-05-20T03:05:14;14.3;57.7
78694;SHT31;68029;51.978;5.646;2023-05-20T03:07:44;14.3;57.9
78694;SHT31;68029;51.978;5.646;2023-05-20T03:10:15;14.3;57.9
78694;SHT31;68029;51.978;5.646;2023-05-20T03:12:45;14.3;58.0
78694;SHT31;68029;51.978;5.646;2023-05-20T03:15:14;14.2;58.2
78694;SHT31;68029;51.978;5.646;2023-05-20T03:17:44;14.2;58.3
78694;SHT31;68029;51.978;5.646;2023-05-20T03:20:13;14.2;58.4
78694;SHT31;68029;51.978;5.646;2023-05-20T03:22:44;14.2;58.3
78694;SHT31;68029;51.978;5.646;2023-05-20T03:25:13;14.2;58.7
78694;SHT31;68029;51.978;5.646;2023-05-20T03:27:43;14.2;58.4
78694;SHT31;68029;51.978;5.646;2023-05-20T03:30:13;14.2;58.5
78694;SHT31;68029;51.978;5.646;2023-05-20T03:32:43;14.2;58.6
78694;SHT31;68029;51.978;5.646;2023-05-20T03:35:15;14.2;58.5
78694;SHT31;68029;51.978;5.646;2023-05-20T03:37:46;14.2;58.6
78694;SHT31;68029;51.978;5.646;2023-05-20T03:40:18;14.2;58.7
78694;SHT31;68029;51.978;5.646;2023-05-20T03:42:49;14.1;58.6
78694;SHT31;68029;51.978;5.646;2023-05-20T03:45:18;14.1;58.9
78694;SHT31;68029;51.978;5.646;2023-05-20T03:47:48;14.1;58.8
78694;SHT31;68029;51.978;5.646;2023-05-20T03:50:18;14.1;59.0
78694;SHT31;68029;51.978;5.646;2023-05-20T03:52:48;14.1;59.2
78694;SHT31;68029;51.978;5.646;2023-05-20T03:55:17;14.1;59.1
78694;SHT31;68029;51.978;5.646;2023-05-20T03:57:47;14.1;59.1
78694;SHT31;68029;51.978;5.646;2023-05-20T04:00:17;14.0;59.2
78694;SHT31;68029;51.978;5.646;2023-05-20T04:02:47;14.0;59.3
78694;SHT31;68029;51.978;5.646;2023-05-20T04:05:17;14.0;59.3
78694;SHT31;68029;51.978;5.646;2023-05-20T04:07:46;14.0;59.2
78694;SHT31;68029;51.978;5.646;2023-05-20T04:10:17;13.9;59.5
78694;SHT31;68029;51.978;5.646;2023-05-20T04:12:47;13.9;59.5
78694;SHT31;68029;51.978;5.646;2023-05-20T04:15:21;13.9;59.7
78694;SHT31;68029;51.978;5.646;2023-05-20T04:17:52;13.9;60.0
78694;SHT31;68029;51.978;5.646;2023-05-20T04:20:22;13.9;60.2
78694;SHT31;68029;51.978;5.646;2023-05-20T04:22:53;13.8;60.1
78694;SHT31;68029;51.978;5.646;2023-05-20T04:25:25;13.8;60.3
78694;SHT31;68029;51.978;5.646;2023-05-20T04:27:54;13.8;60.2
78694;SHT31;68029;51.978;5.646;2023-05-20T04:30:24;13.8;60.4
78694;SHT31;68029;51.978;5.646;2023-05-20T04:32:54;13.8;60.6
78694;SHT31;68029;51.978;5.646;2023-05-20T04:35:24;13.8;60.3
78694;SHT31;68029;51.978;5.646;2023-05-20T04:37:54;13.8;60.4
78694;SHT31;68029;51.978;5.646;2023-05-20T04:40:24;13.8;60.4
78694;SHT31;68029;51.978;5.646;2023-05-20T04:42:53;13.8;60.7
78694;SHT31;68029;51.978;5.646;2023-05-20T04:45:26;13.8;60.7
78694;SHT31;68029;51.978;5.646;2023-05-20T04:47:55;13.8;61.0
78694;SHT31;68029;51.978;5.646;2023-05-20T04:50:25;13.8;61.0
78694;SHT31;68029;51.978;5.646;2023-05-20T04:52:55;13.8;61.2
78694;SHT31;68029;51.978;5.646;2023-05-20T04:55:25;13.8;61.2
78694;SHT31;68029;51.978;5.646;2023-05-20T04:57:55;13.8;61.3
78694;SHT31;68029;51.978;5.646;2023-05-20T05:00:26;13.9;61.1
78694;SHT31;68029;51.978;5.646;2023-05-20T05:02:56;13.9;61.3
78694;SHT31;68029;51.978;5.646;2023-05-20T05:05:25;13.9;61.0
78694;SHT31;68029;51.978;5.646;2023-05-20T05:07:55;14.0;60.9
78694;SHT31;68029;51.978;5.646;2023-05-20T05:10:24;14.0;61.1
78694;SHT31;68029;51.978;5.646;2023-05-20T05:12:54;14.1;60.9
78694;SHT31;68029;51.978;5.646;2023-05-20T05:15:23;14.2;60.8
78694;SHT31;68029;51.978;5.646;2023-05-20T05:17:53;14.2;60.6
78694;SHT31;68029;51.978;5.646;2023-05-20T05:20:23;14.3;60.5
78694;SHT31;68029;51.978;5.646;2023-05-20T05:22:53;14.4;60.1
78694;SHT31;68029;51.978;5.646;2023-05-20T05:25:23;14.5;60.1
78694;SHT31;68029;51.978;5.646;2023-05-20T05:27:52;14.6;60.0
78694;SHT31;68029;51.978;5.646;2023-05-20T05:30:22;14.8;59.2
78694;SHT31;68029;51.978;5.646;2023-05-20T05:32:52;14.9;59.5
78694;SHT31;68029;51.978;5.646;2023-05-20T05:35:24;15.0;58.7
78694;SHT31;68029;51.978;5.646;2023-05-20T05:37:53;15.1;58.9
78694;SHT31;68029;51.978;5.646;2023-05-20T05:40:23;15.2;58.2
78694;SHT31;68029;51.978;5.646;2023-05-20T05:42:53;15.3;57.8
78694;SHT31;68029;51.978;5.646;2023-05-20T05:45:22;15.4;58.0
78694;SHT31;68029;51.978;5.646;2023-05-20T05:47:53;15.6;57.5
78694;SHT31;68029;51.978;5.646;2023-05-20T05:50:23;15.7;57.2
78694;SHT31;68029;51.978;5.646;2023-05-20T05:52:53;15.9;57.2
78694;SHT31;68029;51.978;5.646;2023-05-20T05:55:22;16.0;56.2
78694;SHT31;68029;51.978;5.646;2023-05-20T05:57:52;16.2;56.1
78694;SHT31;68029;51.978;5.646;2023-05-20T06:00:21;16.3;55.5
78694;SHT31;68029;51.978;5.646;2023-05-20T06:02:51;16.5;54.7
78694;SHT31;68029;51.978;5.646;2023-05-20T06:05:20;16.6;54.6
78694;SHT31;68029;51.978;5.646;2023-05-20T06:07:50;16.8;55.1
78694;SHT31;68029;51.978;5.646;2023-05-20T06:10:19;16.9;54.3
78694;SHT31;68029;51.978;5.646;2023-05-20T06:12:49;17.0;53.2
78694;SHT31;68029;51.978;5.646;2023-05-20T06:15:19;17.2;53.2
78694;SHT31;68029;51.978;5.646;2023-05-20T06:17:48;17.3;53.4
78694;SHT31;68029;51.978;5.646;2023-05-20T06:20:18;17.5;52.9
78694;SHT31;68029;51.978;5.646;2023-05-20T06:22:48;17.6;51.2
78694;SHT31;68029;51.978;5.646;2023-05-20T06:25:18;17.8;52.6
78694;SHT31;68029;51.978;5.646;2023-05-20T06:27:49;18.0;50.9
78694;SHT31;68029;51.978;5.646;2023-05-20T06:30:19;18.1;50.5
78694;SHT31;68029;51.978;5.646;2023-05-20T06:32:49;18.3;49.7
78694;SHT31;68029;51.978;5.646;2023-05-20T06:35:18;18.5;50.1
78694;SHT31;68029;51.978;5.646;2023-05-20T06:37:48;18.6;50.1
78694;SHT31;68029;51.978;5.646;2023-05-20T06:40:18;18.8;50.0
78694;SHT31;68029;51.978;5.646;2023-05-20T06:42:47;18.9;48.3
78694;SHT31;68029;51.978;5.646;2023-05-20T06:45:17;19.1;48.5
78694;SHT31;68029;51.978;5.646;2023-05-20T06:47:48;19.2;48.0
78694;SHT31;68029;51.978;5.646;2023-05-20T06:50:18;19.4;47.1
78694;SHT31;68029;51.978;5.646;2023-05-20T06:52:47;19.5;47.2
78694;SHT31;68029;51.978;5.646;2023-05-20T06:55:17;19.7;46.1
78694;SHT31;68029;51.978;5.646;2023-05-20T06:57:48;19.8;45.5
78694;SHT31;68029;51.978;5.646;2023-05-20T07:00:18;19.9;45.9
78694;SHT31;68029;51.978;5.646;2023-05-20T07:02:48;20.0;45.2
78694;SHT31;68029;51.978;5.646;2023-05-20T07:05:17;20.1;44.9
78694;SHT31;68029;51.978;5.646;2023-05-20T07:07:47;20.2;45.2
78694;SHT31;68029;51.978;5.646;2023-05-20T07:10:17;20.3;44.6
78694;SHT31;68029;51.978;5.646;2023-05-20T07:12:47;20.4;44.7
78694;SHT31;68029;51.978;5.646;2023-05-20T07:15:16;20.5;43.5
78694;SHT31;68029;51.978;5.646;2023-05-20T07:17:46;20.6;43.8
78694;SHT31;68029;51.978;5.646;2023-05-20T07:20:15;20.7;43.3
78694;SHT31;68029;51.978;5.646;2023-05-20T07:22:45;20.8;43.3
78694;SHT31;68029;51.978;5.646;2023-05-20T07:25:17;20.9;43.7
78694;SHT31;68029;51.978;5.646;2023-05-20T07:27:46;21.0;43.4
78694;SHT31;68029;51.978;5.646;2023-05-20T07:30:16;21.1;41.3
78694;SHT31;68029;51.978;5.646;2023-05-20T07:32:46;21.2;41.7
78694;SHT31;68029;51.978;5.646;2023-05-20T07:35:16;21.3;41.8
78694;SHT31;68029;51.978;5.646;2023-05-20T07:37:47;21.4;42.1
78694;SHT31;68029;51.978;5.646;2023-05-20T07:40:18;21.6;41.0
78694;SHT31;68029;51.978;5.646;2023-05-20T07:42:47;21.7;39.8
78694;SHT31;68029;51.978;5.646;2023-05-20T07:45:17;21.9;41.5
78694;SHT31;68029;51.978;5.646;2023-05-20T07:47:47;22.0;40.6
78694;SHT31;68029;51.978;5.646;2023-05-20T07:50:16;22.2;38.8
78694;SHT31;68029;51.978;5.646;2023-05-20T07:52:46;22.4;39.5
78694;SHT31;68029;51.978;5.646;2023-05-20T07:55:16;22.6;38.3
78694;SHT31;68029;51.978;5.646;2023-05-20T07:57:46;22.7;37.5
78694;SHT31;68029;51.978;5.646;2023-05-20T08:00:17;22.8;37.7
78694;SHT31;68029;51.978;5.646;2023-05-20T08:02:47;22.9;36.2
78694;SHT31;68029;51.978;5.646;2023-05-20T08:05:17;23.0;35.7
78694;SHT31;68029;51.978;5.646;2023-05-20T08:07:46;23.0;36.2
78694;SHT31;68029;51.978;5.646;2023-05-20T08:10:16;23.0;36.0
78694;SHT31;68029;51.978;5.646;2023-05-20T08:12:46;23.1;35.8
78694;SHT31;68029;51.978;5.646;2023-05-20T08:15:15;23.1;35.7
78694;SHT31;68029;51.978;5.646;2023-05-20T08:17:45;23.1;37.3
78694;SHT31;68029;51.978;5.646;2023-05-20T08:20:14;23.1;36.1
78694;SHT31;68029;51.978;5.646;2023-05-20T08:22:46;23.2;36.1
78694;SHT31;68029;51.978;5.646;2023-05-20T08:25:16;23.3;36.6
78694;SHT31;68029;51.978;5.646;2023-05-20T08:27:46;23.4;36.1
78694;SHT31;68029;51.978;5.646;2023-05-20T08:30:15;23.6;36.8
78694;SHT31;68029;51.978;5.646;2023-05-20T08:32:45;23.8;35.9
78694;SHT31;68029;51.978;5.646;2023-05-20T08:35:15;23.9;35.2
78694;SHT31;68029;51.978;5.646;2023-05-20T08:37:44;24.0;33.9
78694;SHT31;68029;51.978;5.646;2023-05-20T08:40:14;24.1;34.8
78694;SHT31;68029;51.978;5.646;2023-05-20T08:42:44;24.2;34.5
78694;SHT31;68029;51.978;5.646;2023-05-20T08:45:17;24.3;34.6
78694;SHT31;68029;51.978;5.646;2023-05-20T08:47:47;24.4;34.3
78694;SHT31;68029;51.978;5.646;2023-05-20T08:50:17;24.5;32.7
78694;SHT31;68029;51.978;5.646;2023-05-20T08:52:47;24.6;33.2
78694;SHT31;68029;51.978;5.646;2023-05-20T08:58:02;24.8;33.9
78694;SHT31;68029;51.978;5.646;2023-05-20T09:00:31;24.9;33.6
78694;SHT31;68029;51.978;5.646;2023-05-20T09:03:01;25.0;32.4
78694;SHT31;68029;51.978;5.646;2023-05-20T09:05:33;25.1;32.5
78694;SHT31;68029;51.978;5.646;2023-05-20T09:08:08;25.1;32.1
78694;SHT31;68029;51.978;5.646;2023-05-20T09:10:40;25.2;32.7
78694;SHT31;68029;51.978;5.646;2023-05-20T09:13:10;25.3;32.8
78694;SHT31;68029;51.978;5.646;2023-05-20T09:15:40;25.4;31.4
78694;SHT31;68029;51.978;5.646;2023-05-20T09:18:09;25.4;30.6
78694;SHT31;68029;51.978;5.646;2023-05-20T09:20:39;25.3;30.9
78694;SHT31;68029;51.978;5.646;2023-05-20T09:23:09;25.3;31.1
78694;SHT31;68029;51.978;5.646;2023-05-20T09:25:39;25.2;32.5
78694;SHT31;68029;51.978;5.646;2023-05-20T09:28:08;25.2;31.9
78694;SHT31;68029;51.978;5.646;2023-05-20T09:30:40;25.3;32.7
78694;SHT31;68029;51.978;5.646;2023-05-20T09:33:11;25.3;32.4
78694;SHT31;68029;51.978;5.646;2023-05-20T09:35:40;25.5;32.9
78694;SHT31;68029;51.978;5.646;2023-05-20T09:38:11;25.6;31.2
78694;SHT31;68029;51.978;5.646;2023-05-20T09:40:44;25.8;30.5
78694;SHT31;68029;51.978;5.646;2023-05-20T09:43:16;25.9;30.5
78694;SHT31;68029;51.978;5.646;2023-05-20T09:45:46;26.0;31.2
78694;SHT31;68029;51.978;5.646;2023-05-20T09:48:19;26.1;31.6
78694;SHT31;68029;51.978;5.646;2023-05-20T09:50:50;26.2;31.1
78694;SHT31;68029;51.978;5.646;2023-05-20T09:53:21;26.4;30.5
78694;SHT31;68029;51.978;5.646;2023-05-20T09:55:52;26.5;30.5
78694;SHT31;68029;51.978;5.646;2023-05-20T09:58:26;26.6;30.3
78694;SHT31;68029;51.978;5.646;2023-05-20T10:00:57;26.7;30.1
78694;SHT31;68029;51.978;5.646;2023-05-20T10:03:27;26.7;29.8
78694;SHT31;68029;51.978;5.646;2023-05-20T10:06:13;26.8;29.3
78694;SHT31;68029;51.978;5.646;2023-05-20T10:09:07;26.7;29.9
78694;SHT31;68029;51.978;5.646;2023-05-20T10:11:50;26.7;29.3
78694;SHT31;68029;51.978;5.646;2023-05-20T10:14:39;26.6;30.8
78694;SHT31;68029;51.978;5.646;2023-05-20T10:17:19;26.6;30.1
78694;SHT31;68029;51.978;5.646;2023-05-20T10:19:59;26.6;30.6
78694;SHT31;68029;51.978;5.646;2023-05-20T10:22:31;26.7;31.1
78694;SHT31;68029;51.978;5.646;2023-05-20T10:25:04;26.8;31.3
78694;SHT31;68029;51.978;5.646;2023-05-20T10:27:43;26.9;29.8
78694;SHT31;68029;51.978;5.646;2023-05-20T10:30:17;27.0;30.6
78694;SHT31;68029;51.978;5.646;2023-05-20T10:32:54;27.1;30.0
78694;SHT31;68029;51.978;5.646;2023-05-20T10:35:26;27.1;30.3
78694;SHT31;68029;51.978;5.646;2023-05-20T10:38:10;27.2;30.1
78694;SHT31;68029;51.978;5.646;2023-05-20T10:40:42;27.2;29.4
78694;SHT31;68029;51.978;5.646;2023-05-20T10:43:13;27.2;29.9
78694;SHT31;68029;51.978;5.646;2023-05-20T10:45:50;27.3;31.0
78694;SHT31;68029;51.978;5.646;2023-05-20T10:48:28;27.3;30.2
78694;SHT31;68029;51.978;5.646;2023-05-20T10:51:00;27.4;30.1
78694;SHT31;68029;51.978;5.646;2023-05-20T10:53:39;27.4;29.2
78694;SHT31;68029;51.978;5.646;2023-05-20T10:56:19;27.4;29.4
78694;SHT31;68029;51.978;5.646;2023-05-20T10:58:50;27.4;29.5
78694;SHT31;68029;51.978;5.646;2023-05-20T11:01:24;27.4;29.9
78694;SHT31;68029;51.978;5.646;2023-05-20T11:03:56;27.4;29.1
78694;SHT31;68029;51.978;5.646;2023-05-20T11:06:27;27.4;29.5
78694;SHT31;68029;51.978;5.646;2023-05-20T11:09:03;27.4;29.5
78694;SHT31;68029;51.978;5.646;2023-05-20T11:11:34;27.5;29.0
78694;SHT31;68029;51.978;5.646;2023-05-20T11:14:05;27.5;29.2
78694;SHT31;68029;51.978;5.646;2023-05-20T11:16:36;27.5;30.2
78694;SHT31;68029;51.978;5.646;2023-05-20T11:19:08;27.5;29.3
78694;SHT31;68029;51.978;5.646;2023-05-20T11:21:46;27.5;29.1
78694;SHT31;68029;51.978;5.646;2023-05-20T11:24:24;27.5;29.3
78694;SHT31;68029;51.978;5.646;2023-05-20T11:26:55;27.5;29.8
78694;SHT31;68029;51.978;5.646;2023-05-20T11:29:27;27.4;29.4
78694;SHT31;68029;51.978;5.646;2023-05-20T11:31:59;27.4;29.9
78694;SHT31;68029;51.978;5.646;2023-05-20T11:34:36;27.4;30.1
78694;SHT31;68029;51.978;5.646;2023-05-20T11:37:09;27.5;28.5
78694;SHT31;68029;51.978;5.646;2023-05-20T11:39:40;27.4;29.2
78694;SHT31;68029;51.978;5.646;2023-05-20T11:42:09;27.3;29.1
78694;SHT31;68029;51.978;5.646;2023-05-20T11:44:42;27.3;29.1
78694;SHT31;68029;51.978;5.646;2023-05-20T11:47:14;27.3;31.0
78694;SHT31;68029;51.978;5.646;2023-05-20T11:49:48;27.3;31.8
78694;SHT31;68029;51.978;5.646;2023-05-20T11:52:18;27.5;30.1
78694;SHT31;68029;51.978;5.646;2023-05-20T11:54:52;27.7;29.1
78694;SHT31;68029;51.978;5.646;2023-05-20T11:57:22;27.9;30.0
78694;SHT31;68029;51.978;5.646;2023-05-20T11:59:54;28.0;28.6
78694;SHT31;68029;51.978;5.646;2023-05-20T12:02:24;28.1;28.9
78694;SHT31;68029;51.978;5.646;2023-05-20T12:04:55;28.2;27.9
78694;SHT31;68029;51.978;5.646;2023-05-20T12:07:24;28.3;27.1
78694;SHT31;68029;51.978;5.646;2023-05-20T12:09:54;28.3;27.7
78694;SHT31;68029;51.978;5.646;2023-05-20T12:12:24;28.2;28.5
78694;SHT31;68029;51.978;5.646;2023-05-20T12:14:53;28.2;28.4
78694;SHT31;68029;51.978;5.646;2023-05-20T12:17:23;28.1;29.0
78694;SHT31;68029;51.978;5.646;2023-05-20T12:19:52;28.0;28.4
78694;SHT31;68029;51.978;5.646;2023-05-20T12:22:22;27.8;28.8
78694;SHT31;68029;51.978;5.646;2023-05-20T12:24:54;27.6;30.5
78694;SHT31;68029;51.978;5.646;2023-05-20T12:27:23;27.5;29.5
78694;SHT31;68029;51.978;5.646;2023-05-20T12:29:53;27.4;30.1
78694;SHT31;68029;51.978;5.646;2023-05-20T12:32:22;27.3;29.5
78694;SHT31;68029;51.978;5.646;2023-05-20T12:34:52;27.2;29.9
78694;SHT31;68029;51.978;5.646;2023-05-20T12:37:22;27.1;30.6
78694;SHT31;68029;51.978;5.646;2023-05-20T12:39:51;27.0;30.3
78694;SHT31;68029;51.978;5.646;2023-05-20T12:42:21;26.9;30.4
78694;SHT31;68029;51.978;5.646;2023-05-20T12:44:50;26.8;30.2
78694;SHT31;68029;51.978;5.646;2023-05-20T12:47:20;26.7;29.1
78694;SHT31;68029;51.978;5.646;2023-05-20T12:49:52;26.6;29.6
78694;SHT31;68029;51.978;5.646;2023-05-20T12:52:22;26.5;29.7
78694;SHT31;68029;51.978;5.646;2023-05-20T12:54:52;26.5;30.9
78694;SHT31;68029;51.978;5.646;2023-05-20T12:57:23;26.5;31.7
78694;SHT31;68029;51.978;5.646;2023-05-20T12:59:53;26.5;31.1
78694;SHT31;68029;51.978;5.646;2023-05-20T13:02:23;26.5;30.8
78694;SHT31;68029;51.978;5.646;2023-05-20T13:04:53;26.6;32.5
78694;SHT31;68029;51.978;5.646;2023-05-20T13:07:22;26.6;31.4
78694;SHT31;68029;51.978;5.646;2023-05-20T13:09:53;26.6;31.5
78694;SHT31;68029;51.978;5.646;2023-05-20T13:12:23;26.6;30.8
78694;SHT31;68029;51.978;5.646;2023-05-20T13:14:52;26.6;30.1
78694;SHT31;68029;51.978;5.646;2023-05-20T13:17:22;26.5;31.2
78694;SHT31;68029;51.978;5.646;2023-05-20T13:19:52;26.4;31.0
78694;SHT31;68029;51.978;5.646;2023-05-20T13:22:22;26.3;30.4
78694;SHT31;68029;51.978;5.646;2023-05-20T13:24:52;26.2;31.0
78694;SHT31;68029;51.978;5.646;2023-05-20T13:27:21;26.1;31.7
78694;SHT31;68029;51.978;5.646;2023-05-20T13:29:51;26.0;32.4
78694;SHT31;68029;51.978;5.646;2023-05-20T13:32:21;26.0;31.1
78694;SHT31;68029;51.978;5.646;2023-05-20T13:34:50;25.9;32.7
78694;SHT31;68029;51.978;5.646;2023-05-20T13:37:22;25.8;32.2
78694;SHT31;68029;51.978;5.646;2023-05-20T13:39:51;25.7;31.4
78694;SHT31;68029;51.978;5.646;2023-05-20T13:42:21;25.6;32.5
78694;SHT31;68029;51.978;5.646;2023-05-20T13:44:50;25.5;31.8
78694;SHT31;68029;51.978;5.646;2023-05-20T13:47:20;25.4;32.8
78694;SHT31;68029;51.978;5.646;2023-05-20T13:49:49;25.4;33.0
78694;SHT31;68029;51.978;5.646;2023-05-20T13:52:19;25.3;34.6
78694;SHT31;68029;51.978;5.646;2023-05-20T13:54:48;25.3;33.8
78694;SHT31;68029;51.978;5.646;2023-05-20T13:57:18;25.3;34.0
78694;SHT31;68029;51.978;5.646;2023-05-20T13:59:47;25.4;34.4
78694;SHT31;68029;51.978;5.646;2023-05-20T14:02:17;25.4;33.7
78694;SHT31;68029;51.978;5.646;2023-05-20T14:04:47;25.4;33.5
78694;SHT31;68029;51.978;5.646;2023-05-20T14:07:18;25.4;33.4
78694;SHT31;68029;51.978;5.646;2023-05-20T14:09:48;25.5;33.7
78694;SHT31;68029;51.978;5.646;2023-05-20T14:12:17;25.5;33.2
78694;SHT31;68029;51.978;5.646;2023-05-20T14:14:49;25.5;33.4
78694;SHT31;68029;51.978;5.646;2023-05-20T14:17:19;25.5;33.7
78694;SHT31;68029;51.978;5.646;2023-05-20T14:19:49;25.6;34.5
78694;SHT31;68029;51.978;5.646;2023-05-20T14:22:18;25.6;32.9
78694;SHT31;68029;51.978;5.646;2023-05-20T14:24:48;25.6;33.2
78694;SHT31;68029;51.978;5.646;2023-05-20T14:27:17;25.6;32.8
78694;SHT31;68029;51.978;5.646;2023-05-20T14:29:47;25.6;33.4
78694;SHT31;68029;51.978;5.646;2023-05-20T14:32:16;25.5;32.6
78694;SHT31;68029;51.978;5.646;2023-05-20T14:34:45;25.5;33.0
78694;SHT31;68029;51.978;5.646;2023-05-20T14:37:15;25.5;33.7
78694;SHT31;68029;51.978;5.646;2023-05-20T14:39:44;25.5;33.0
78694;SHT31;68029;51.978;5.646;2023-05-20T14:42:14;25.4;32.5
78694;SHT31;68029;51.978;5.646;2023-05-20T14:44:43;25.3;34.0
78694;SHT31;68029;51.978;5.646;2023-05-20T14:47:13;25.3;33.7
78694;SHT31;68029;51.978;5.646;2023-05-20T14:49:50;25.2;33.6
78694;SHT31;68029;51.978;5.646;2023-05-20T14:52:19;25.2;33.4
78694;SHT31;68029;51.978;5.646;2023-05-20T14:54:49;25.1;33.0
78694;SHT31;68029;51.978;5.646;2023-05-20T14:57:18;25.1;33.7
78694;SHT31;68029;51.978;5.646;2023-05-20T14:59:48;25.1;32.9
78694;SHT31;68029;51.978;5.646;2023-05-20T15:02:19;25.1;34.3
78694;SHT31;68029;51.978;5.646;2023-05-20T15:04:48;25.1;33.3
78694;SHT31;68029;51.978;5.646;2023-05-20T15:07:18;25.1;33.0
78694;SHT31;68029;51.978;5.646;2023-05-20T15:09:49;25.1;33.1
78694;SHT31;68029;51.978;5.646;2023-05-20T15:12:19;25.1;33.0
78694;SHT31;68029;51.978;5.646;2023-05-20T15:14:48;25.0;33.9
78694;SHT31;68029;51.978;5.646;2023-05-20T15:17:18;25.0;34.8
78694;SHT31;68029;51.978;5.646;2023-05-20T15:19:48;25.0;33.7
78694;SHT31;68029;51.978;5.646;2023-05-20T15:22:18;25.0;33.8
78694;SHT31;68029;51.978;5.646;2023-05-20T15:24:47;25.0;33.4
78694;SHT31;68029;51.978;5.646;2023-05-20T15:27:17;25.0;33.8
78694;SHT31;68029;51.978;5.646;2023-05-20T15:29:47;25.0;34.2
78694;SHT31;68029;51.978;5.646;2023-05-20T15:32:17;24.9;33.3
78694;SHT31;68029;51.978;5.646;2023-05-20T15:34:47;24.9;33.9
78694;SHT31;68029;51.978;5.646;2023-05-20T15:37:16;24.9;34.1
78694;SHT31;68029;51.978;5.646;2023-05-20T15:39:46;24.8;33.9
78694;SHT31;68029;51.978;5.646;2023-05-20T15:42:16;24.8;33.5
78694;SHT31;68029;51.978;5.646;2023-05-20T15:44:46;24.8;34.2
78694;SHT31;68029;51.978;5.646;2023-05-20T15:47:15;24.8;33.3
78694;SHT31;68029;51.978;5.646;2023-05-20T15:49:45;24.7;33.5
78694;SHT31;68029;51.978;5.646;2023-05-20T15:52:15;24.7;33.2
78694;SHT31;68029;51.978;5.646;2023-05-20T15:54:44;24.7;33.7
78694;SHT31;68029;51.978;5.646;2023-05-20T15:57:14;24.6;34.1
78694;SHT31;68029;51.978;5.646;2023-05-20T15:59:43;24.6;34.4
78694;SHT31;68029;51.978;5.646;2023-05-20T16:02:13;24.6;34.0
78694;SHT31;68029;51.978;5.646;2023-05-20T16:04:42;24.5;33.8
78694;SHT31;68029;51.978;5.646;2023-05-20T16:07:14;24.5;34.1
78694;SHT31;68029;51.978;5.646;2023-05-20T16:09:44;24.4;34.0
78694;SHT31;68029;51.978;5.646;2023-05-20T16:12:14;24.3;33.9
78694;SHT31;68029;51.978;5.646;2023-05-20T16:14:45;24.3;33.9
78694;SHT31;68029;51.978;5.646;2023-05-20T16:17:14;24.2;34.5
78694;SHT31;68029;51.978;5.646;2023-05-20T16:19:49;24.1;34.5
78694;SHT31;68029;51.978;5.646;2023-05-20T16:22:19;24.1;34.0
78694;SHT31;68029;51.978;5.646;2023-05-20T16:24:48;24.0;34.5
78694;SHT31;68029;51.978;5.646;2023-05-20T16:27:20;24.0;34.9